Time;durP1;ratioP1;P1;durP2;ratioP2;P2;SDS_P1;SDS_P2;PMS_P1;PMS_P2;Temp;Humidity;BMP_temperature;BMP_pressure;BME280_temperature;BME280_humidity;BME280_pressure;Samples;Min_cycle;Max_cycle;Signal;HPM_P1;HPM_P2
2021/05/14 00:00:45;;;;;;;;;;;;;;;20.65;55.73;99897.56;1821729;77;20219;-56
2021/05/14 00:03:13;;;;;;;;;;;;;;;20.64;55.71;99891.79;1822532;77;20739;-56
2021/05/14 00:05:39;;;;;;;;;;;;;;;20.62;55.73;99888.57;1824942;77;20836;-56
2021/05/14 00:08:06;;;;;;;;;;;;;;;20.62;55.75;99886.37;1814103;77;20196;-56
2021/05/14 00:10:34;;;;;;;;;;;;;;;20.61;55.73;99884.75;1822732;77;20171;-55
2021/05/14 00:13:00;;;;;;;;;;;;;;;20.61;55.74;99881.99;1818956;77;20186;-56
2021/05/14 00:15:26;;;;;;;;;;;;;;;20.60;55.75;99874.84;1817939;77;21169;-55
2021/05/14 00:17:52;;;;;;;;;;;;;;;20.58;55.73;99875.17;1827799;77;20664;-56
2021/05/14 00:20:18;;;;;;;;;;;;;;;20.57;55.74;99874.96;1814247;77;20232;-56
2021/05/14 00:22:44;;;;;;;;;;;;;;;20.57;55.75;99873.58;1816242;77;20157;-56
2021/05/14 00:25:11;;;;;;;;;;;;;;;20.57;55.76;99875.53;1806300;77;20287;-56
2021/05/14 00:27:37;;;;;;;;;;;;;;;20.55;55.76;99871.71;1820534;77;21139;-55
2021/05/14 00:30:04;;;;;;;;;;;;;;;20.54;55.76;99874.84;1816197;77;20451;-56
2021/05/14 00:32:30;;;;;;;;;;;;;;;20.53;55.76;99871.26;1819607;77;20210;-56
2021/05/14 00:34:56;;;;;;;;;;;;;;;20.51;55.77;99872.97;1809512;77;20706;-56
2021/05/14 00:37:22;;;;;;;;;;;;;;;20.51;55.79;99876.30;1819765;78;20225;-56
2021/05/14 00:39:47;;;;;;;;;;;;;;;20.50;55.77;99875.49;1820088;77;21685;-56
2021/05/14 00:42:13;;;;;;;;;;;;;;;20.49;55.78;99871.13;1815560;77;20206;-56
2021/05/14 00:44:45;;;;;;;;;;;;;;;20.48;55.76;99869.52;1811511;77;20208;-55
2021/05/14 00:47:12;;;;;;;;;;;;;;;20.47;55.79;99877.56;1816385;77;20230;-56
2021/05/14 00:49:39;;;;;;;;;;;;;;;20.47;55.78;99867.08;1809499;77;20207;-56
2021/05/14 00:52:05;;;;;;;;;;;;;;;20.46;55.80;99880.08;1817190;77;20957;-56
2021/05/14 00:54:31;;;;;;;;;;;;;;;20.45;55.78;99881.82;1820327;77;20481;-56
2021/05/14 00:56:58;;;;;;;;;;;;;;;20.44;55.80;99889.87;1816746;77;20117;-56
2021/05/14 00:59:25;;;;;;;;;;;;;;;20.43;55.80;99892.39;1815702;77;20212;-56
2021/05/14 01:01:51;;;;;;;;;;;;;;;20.43;55.80;99888.25;1823630;77;20135;-55
2021/05/14 01:04:17;;;;;;;;;;;;;;;20.42;55.81;99883.28;1824582;77;21073;-56
2021/05/14 01:06:43;;;;;;;;;;;;;;;20.41;55.82;99891.33;1804996;77;20178;-54
2021/05/14 01:09:08;;;;;;;;;;;;;;;20.40;55.81;99893.08;1822272;77;20234;-55
2021/05/14 01:11:34;;;;;;;;;;;;;;;20.40;55.81;99898.59;1816059;77;20219;-56
2021/05/14 01:14:01;;;;;;;;;;;;;;;20.39;55.82;99906.07;1813962;77;20699;-54
2021/05/14 01:16:27;;;;;;;;;;;;;;;20.38;55.82;99901.69;1817256;77;21084;-56
2021/05/14 01:18:53;;;;;;;;;;;;;;;20.37;55.79;99895.92;1820626;77;21597;-55
2021/05/14 01:21:20;;;;;;;;;;;;;;;20.36;55.82;99894.33;1818955;77;20196;-56
2021/05/14 01:23:46;;;;;;;;;;;;;;;20.37;55.83;99897.87;1814555;77;20243;-56
2021/05/14 01:26:14;;;;;;;;;;;;;;;20.36;55.81;99896.27;1817147;77;20248;-56
2021/05/14 01:28:40;;;;;;;;;;;;;;;20.33;55.83;99892.78;1822553;77;21032;-55
2021/05/14 01:31:07;;;;;;;;;;;;;;;20.33;55.81;99896.93;1823654;77;20475;-55
2021/05/14 01:33:33;;;;;;;;;;;;;;;20.32;55.81;99893.95;1819063;77;20127;-55
2021/05/14 01:35:59;;;;;;;;;;;;;;;20.32;55.84;99901.67;1811493;77;20256;-55
2021/05/14 01:38:25;;;;;;;;;;;;;;;20.30;55.82;99894.28;1812888;77;20188;-56
2021/05/14 01:40:51;;;;;;;;;;;;;;;20.30;55.83;99893.47;1813738;78;21104;-56
2021/05/14 01:43:17;;;;;;;;;;;;;;;20.29;55.83;99892.66;1810135;78;20199;-55
2021/05/14 01:45:44;;;;;;;;;;;;;;;20.29;55.83;99896.80;1821884;77;20210;-55
2021/05/14 01:48:10;;;;;;;;;;;;;;;20.28;55.82;99890.22;1813072;77;20158;-55
2021/05/14 01:50:36;;;;;;;;;;;;;;;20.27;55.84;99892.17;1824077;77;20217;-56
2021/05/14 01:53:02;;;;;;;;;;;;;;;20.27;55.83;99884.45;1820976;77;21047;-54
2021/05/14 01:55:28;;;;;;;;;;;;;;;20.27;55.84;99881.69;1816919;78;20161;-55
2021/05/14 01:57:54;;;;;;;;;;;;;;;20.25;55.86;99875.69;1813394;77;20303;-56
2021/05/14 02:00:21;;;;;;;;;;;;;;;20.24;55.84;99877.63;1829122;77;20185;-55
2021/05/14 02:02:47;;;;;;;;;;;;;;;20.24;55.85;99876.85;1813829;78;20495;-55
2021/05/14 02:05:14;;;;;;;;;;;;;;;20.24;55.84;99876.25;1823998;77;20974;-55
2021/05/14 02:07:40;;;;;;;;;;;;;;;20.22;55.85;99868.89;1819190;77;20222;-56
2021/05/14 02:10:06;;;;;;;;;;;;;;;20.22;55.86;99878.55;1822592;77;20197;-55
2021/05/14 02:12:32;;;;;;;;;;;;;;;20.21;55.86;99871.41;1829831;77;20145;-56
2021/05/14 02:14:58;;;;;;;;;;;;;;;20.20;55.83;99873.93;1819633;77;20727;-55
2021/05/14 02:17:24;;;;;;;;;;;;;;;20.19;55.84;99870.95;1812379;77;21780;-55
2021/05/14 02:19:50;;;;;;;;;;;;;;;20.19;55.85;99866.00;1811339;77;20284;-56
2021/05/14 02:22:16;;;;;;;;;;;;;;;20.18;55.87;99865.19;1825978;77;20214;-56
2021/05/14 02:24:43;;;;;;;;;;;;;;;20.18;55.86;99876.80;1818343;77;20278;-55
2021/05/14 02:27:09;;;;;;;;;;;;;;;20.17;55.85;99877.38;1825055;77;20317;-56
2021/05/14 02:29:35;;;;;;;;;;;;;;;20.16;55.86;99871.61;1828780;77;21139;-55
2021/05/14 02:32:05;;;;;;;;;;;;;;;20.16;55.86;99870.23;1821125;78;20188;-56
2021/05/14 02:34:31;;;;;;;;;;;;;;;20.15;55.87;99871.39;1826051;77;20450;-56
2021/05/14 02:36:58;;;;;;;;;;;;;;;20.14;55.87;99873.91;1824385;77;20280;-55
2021/05/14 02:39:24;;;;;;;;;;;;;;;20.14;55.88;99878.05;1811107;78;20155;-56
2021/05/14 02:41:50;;;;;;;;;;;;;;;20.13;55.88;99876.44;1820289;77;20164;-54
2021/05/14 02:44:16;;;;;;;;;;;;;;;20.14;55.88;99874.48;1826718;77;20239;-56
2021/05/14 02:46:42;;;;;;;;;;;;;;;20.13;55.88;99887.48;1820639;77;20184;-55
2021/05/14 02:49:08;;;;;;;;;;;;;;;20.12;55.88;99890.00;1812264;77;20168;-56
2021/05/14 02:51:34;;;;;;;;;;;;;;;20.12;55.88;99898.28;1788958;78;20239;-55
2021/05/14 02:54:00;;;;;;;;;;;;;;;20.12;55.88;99890.56;1780847;78;21021;-56
2021/05/14 02:56:30;;;;;;;;;;;;;;;20.09;55.88;99889.30;1796806;78;20153;-56
2021/05/14 02:58:56;;;;;;;;;;;;;;;20.09;55.90;99896.20;1795549;78;20574;-55
2021/05/14 03:01:23;;;;;;;;;;;;;;;20.08;55.90;99899.53;1793427;79;20257;-56
2021/05/14 03:03:48;;;;;;;;;;;;;;;20.07;55.90;99894.36;1796551;78;20555;-56
2021/05/14 03:06:15;;;;;;;;;;;;;;;20.07;55.89;99900.66;1802392;78;21903;-55
2021/05/14 03:08:41;;;;;;;;;;;;;;;20.06;55.88;99905.16;1802291;78;20218;-55
2021/05/14 03:11:07;;;;;;;;;;;;;;;20.05;55.88;99901.59;1796411;78;20206;-55
2021/05/14 03:13:33;;;;;;;;;;;;;;;20.04;55.89;99898.59;1791105;78;20210;-55
2021/05/14 03:15:59;;;;;;;;;;;;;;;20.04;55.91;99897.20;1792845;78;20308;-56
2021/05/14 03:18:25;;;;;;;;;;;;;;;20.04;55.91;99896.39;1813211;78;21238;-56
2021/05/14 03:20:51;;;;;;;;;;;;;;;20.03;55.90;99894.77;1797618;78;20168;-56
2021/05/14 03:23:17;;;;;;;;;;;;;;;20.03;55.91;99899.72;1799762;78;20527;-56
2021/05/14 03:25:43;;;;;;;;;;;;;;;20.02;55.89;99901.45;1802258;78;21859;-56
2021/05/14 03:28:09;;;;;;;;;;;;;;;20.00;55.89;99901.78;1791736;78;20252;-56
2021/05/14 03:30:35;;;;;;;;;;;;;;;20.01;55.90;99903.41;1800923;78;23306;-55
2021/05/14 03:33:01;;;;;;;;;;;;;;;20.00;55.90;99907.30;1792894;78;20232;-55
2021/05/14 03:35:27;;;;;;;;;;;;;;;20.00;55.90;99910.06;1788147;78;20232;-55
2021/05/14 03:37:53;;;;;;;;;;;;;;;19.99;55.91;99913.96;1798121;78;20716;-55
2021/05/14 03:40:31;;;;;;;;;;;;;;;19.99;55.90;99911.77;1800200;78;20227;-56
2021/05/14 03:42:47;;;;;;;;;;;;;;;19.97;55.90;99905.22;1802953;78;21129;-55
2021/05/14 03:45:14;;;;;;;;;;;;;;;19.98;55.89;99906.03;1804891;78;20281;-56
2021/05/14 03:47:40;;;;;;;;;;;;;;;19.98;55.91;99908.80;1795922;78;20200;-54
2021/05/14 03:50:08;;;;;;;;;;;;;;;19.98;55.91;99915.13;1811959;78;20158;-54
2021/05/14 03:52:34;;;;;;;;;;;;;;;19.97;55.91;99914.88;1805813;78;20154;-56
2021/05/14 03:55:00;;;;;;;;;;;;;;;19.96;55.90;99920.16;1798287;78;21055;-55
2021/05/14 03:57:26;;;;;;;;;;;;;;;19.97;55.91;99911.31;1808098;78;20225;-55
2021/05/14 03:59:52;;;;;;;;;;;;;;;19.95;55.91;99915.77;1799931;78;20228;-55
2021/05/14 04:02:19;;;;;;;;;;;;;;;19.96;55.92;99920.73;1785802;78;20444;-55
2021/05/14 04:04:45;;;;;;;;;;;;;;;19.94;55.90;99922.44;1784004;79;20215;-55
2021/05/14 04:07:12;;;;;;;;;;;;;;;19.94;55.89;99923.03;1790920;78;21140;-55
2021/05/14 04:09:39;;;;;;;;;;;;;;;19.93;55.89;99927.73;1807870;78;20151;-55
2021/05/14 04:14:43;;;;;;;;;;;;;;;19.92;55.91;99935.78;1788141;78;20317;-55
2021/05/14 04:17:08;;;;;;;;;;;;;;;19.93;55.90;99945.69;1802980;78;20206;-55
2021/05/14 04:19:34;;;;;;;;;;;;;;;19.93;55.90;99949.02;1792623;78;21080;-55
2021/05/14 04:22:03;;;;;;;;;;;;;;;19.92;55.92;99947.39;1791089;78;20224;-55
2021/05/14 04:24:29;;;;;;;;;;;;;;;19.91;55.91;99953.48;1805323;78;20196;-56
2021/05/14 04:26:55;;;;;;;;;;;;;;;19.91;55.91;99946.58;1786478;78;20211;-56
2021/05/14 04:29:21;;;;;;;;;;;;;;;19.92;55.90;99948.77;1793593;78;20298;-56
2021/05/14 04:31:47;;;;;;;;;;;;;;;19.90;55.91;99942.79;1789567;78;21107;-55
2021/05/14 04:34:14;;;;;;;;;;;;;;;19.91;55.90;99949.91;1789962;79;20198;-56
2021/05/14 04:36:44;;;;;;;;;;;;;;;19.89;55.91;99948.88;1784925;78;20158;-55
2021/05/14 04:39:10;;;;;;;;;;;;;;;19.89;55.91;99953.02;1798755;77;20133;-55
2021/05/14 04:41:36;;;;;;;;;;;;;;;19.88;55.90;99945.06;1804586;77;20210;-55
2021/05/14 04:44:02;;;;;;;;;;;;;;;19.89;55.89;99956.34;1799165;77;21161;-54
2021/05/14 04:46:28;;;;;;;;;;;;;;;19.89;55.91;99960.48;1789810;78;20224;-53
2021/05/14 04:48:54;;;;;;;;;;;;;;;19.89;55.91;99963.24;1788740;78;20207;-55
2021/05/14 04:51:20;;;;;;;;;;;;;;;19.88;55.88;99967.14;1799905;78;20174;-54
2021/05/14 04:53:46;;;;;;;;;;;;;;;19.88;55.89;99966.58;1793377;78;20133;-55
2021/05/14 04:56:14;;;;;;;;;;;;;;;19.87;55.90;99963.56;1790323;78;21148;-54
2021/05/14 04:58:43;;;;;;;;;;;;;;;19.86;55.88;99961.16;1778660;79;20122;-56
2021/05/14 05:01:09;;;;;;;;;;;;;;;19.86;55.89;99959.18;1778896;79;20159;-55
2021/05/14 05:03:35;;;;;;;;;;;;;;;19.86;55.88;99958.40;1793090;79;20150;-55
2021/05/14 05:06:03;;;;;;;;;;;;;;;19.85;55.88;99956.20;1779676;79;20220;-56
2021/05/14 05:08:29;;;;;;;;;;;;;;;19.85;55.88;99965.87;1784238;79;21051;-55
2021/05/14 05:10:55;;;;;;;;;;;;;;;19.84;55.88;99959.28;1800487;78;20752;-56
2021/05/14 05:13:21;;;;;;;;;;;;;;;19.84;55.89;99956.53;1797947;78;20532;-53
2021/05/14 05:15:47;;;;;;;;;;;;;;;19.83;55.89;99959.85;1822978;77;21803;-55
2021/05/14 05:18:13;;;;;;;;;;;;;;;19.83;55.89;99959.85;1818086;77;20246;-55
2021/05/14 05:20:39;;;;;;;;;;;;;;;19.83;55.88;99968.70;1821674;77;21143;-55
2021/05/14 05:23:05;;;;;;;;;;;;;;;19.83;55.89;99961.80;1823875;77;20204;-55
2021/05/14 05:25:31;;;;;;;;;;;;;;;19.83;55.89;99972.27;1815535;77;20217;-55
2021/05/14 05:27:57;;;;;;;;;;;;;;;19.82;55.88;99970.65;1822099;77;20547;-55
2021/05/14 05:30:24;;;;;;;;;;;;;;;19.82;55.90;99976.17;1823775;77;20688;-55
2021/05/14 05:32:51;;;;;;;;;;;;;;;19.81;55.88;99973.19;1817425;77;21232;-55
2021/05/14 05:35:17;;;;;;;;;;;;;;;19.83;55.88;99976.98;1817964;77;20144;-55
2021/05/14 05:37:44;;;;;;;;;;;;;;;19.81;55.90;99977.33;1816178;77;20320;-54
2021/05/14 05:40:11;;;;;;;;;;;;;;;19.80;55.89;99971.57;1822933;77;21770;-55
2021/05/14 05:42:37;;;;;;;;;;;;;;;19.81;55.90;99981.47;1817426;77;20517;-55
2021/05/14 05:45:04;;;;;;;;;;;;;;;19.81;55.90;99987.00;1815519;77;21994;-55
2021/05/14 05:47:31;;;;;;;;;;;;;;;19.80;55.89;99977.09;1815522;77;20470;-54
2021/05/14 05:49:57;;;;;;;;;;;;;;;19.81;55.90;99981.47;1817916;77;20232;-55
2021/05/14 05:52:23;;;;;;;;;;;;;;;19.81;55.91;99973.19;1817508;77;20132;-56
2021/05/14 05:54:49;;;;;;;;;;;;;;;19.82;55.89;99976.73;1822508;77;20495;-55
2021/05/14 05:57:15;;;;;;;;;;;;;;;19.82;55.88;99985.02;1822233;77;21164;-55
2021/05/14 05:59:41;;;;;;;;;;;;;;;19.82;55.88;99987.78;1821815;77;20272;-56
2021/05/14 06:02:07;;;;;;;;;;;;;;;19.82;55.90;99985.02;1824245;77;20206;-55
2021/05/14 06:04:34;;;;;;;;;;;;;;;19.82;55.89;99985.02;1812890;77;20206;-55
2021/05/14 06:07:00;;;;;;;;;;;;;;;19.82;55.88;99989.16;1822529;77;20475;-55
2021/05/14 06:09:26;;;;;;;;;;;;;;;19.82;55.89;99998.81;1812577;77;20952;-55
2021/05/14 06:11:52;;;;;;;;;;;;;;;19.82;55.88;99990.53;1824308;77;20236;-56
2021/05/14 06:14:19;;;;;;;;;;;;;;;19.82;55.87;99992.73;1826948;77;20249;-55
2021/05/14 06:16:45;;;;;;;;;;;;;;;19.83;55.88;99999.88;1820706;78;20288;-54
2021/05/14 06:19:18;;;;;;;;;;;;;;;19.84;55.88;99999.31;1829374;77;20140;-54
2021/05/14 06:21:47;;;;;;;;;;;;;;;19.86;55.88;100008.09;1820740;77;23311;-56
2021/05/14 06:24:13;;;;;;;;;;;;;;;19.87;55.87;100006.92;1821363;77;20176;-55
2021/05/14 06:26:41;;;;;;;;;;;;;;;19.88;55.84;100011.31;1820162;77;20249;-54
2021/05/14 06:29:07;;;;;;;;;;;;;;;19.88;55.84;100016.27;1811567;78;20180;-53
2021/05/14 06:31:33;;;;;;;;;;;;;;;19.90;55.82;100017.33;1815387;77;20471;-55
2021/05/14 06:33:59;;;;;;;;;;;;;;;19.90;55.82;100015.94;1812574;77;21044;-54
2021/05/14 06:36:25;;;;;;;;;;;;;;;19.89;55.82;100026.17;1818455;77;21750;-55
2021/05/14 06:38:51;;;;;;;;;;;;;;;19.91;55.81;100019.73;1807253;78;20229;-56
2021/05/14 06:41:17;;;;;;;;;;;;;;;19.91;55.81;100025.81;1822363;77;20226;-55
2021/05/14 06:43:42;;;;;;;;;;;;;;;19.91;55.81;100020.30;1821499;77;20229;-56
2021/05/14 06:46:08;;;;;;;;;;;;;;;19.91;55.80;100028.02;1811303;77;21171;-56
2021/05/14 06:48:35;;;;;;;;;;;;;;;19.92;55.81;100028.27;1819682;77;20801;-55
2021/05/14 06:51:01;;;;;;;;;;;;;;;19.91;55.82;100021.67;1805659;77;21507;-56
2021/05/14 06:53:27;;;;;;;;;;;;;;;19.92;55.82;100027.45;1810342;77;20647;-54
2021/05/14 06:55:53;;;;;;;;;;;;;;;19.93;55.80;100023.55;1822887;77;20216;-55
2021/05/14 06:58:19;;;;;;;;;;;;;;;19.92;55.80;100028.27;1820263;77;21122;-55
2021/05/14 07:00:45;;;;;;;;;;;;;;;19.92;55.77;100026.87;1815195;77;20229;-55
2021/05/14 07:03:11;;;;;;;;;;;;;;;19.92;55.79;100032.97;1811723;77;20238;-55
2021/05/14 07:05:37;;;;;;;;;;;;;;;19.92;55.81;100026.87;1819603;77;20203;-55
2021/05/14 07:08:03;;;;;;;;;;;;;;;19.93;55.79;100029.89;1810146;77;20267;-56
2021/05/14 07:10:29;;;;;;;;;;;;;;;19.93;55.79;100029.89;1813777;77;21123;-55
2021/05/14 07:12:56;;;;;;;;;;;;;;;19.92;55.80;100027.45;1823582;77;20189;-55
2021/05/14 07:15:22;;;;;;;;;;;;;;;19.93;55.78;100027.69;1820181;77;20468;-55
2021/05/14 07:17:48;;;;;;;;;;;;;;;19.93;55.79;100031.83;1797548;78;20673;-54
2021/05/14 07:20:14;;;;;;;;;;;;;;;19.93;55.78;100028.51;1802705;78;20517;-54
2021/05/14 07:22:40;;;;;;;;;;;;;;;19.93;55.78;100030.45;1798273;78;21101;-55
2021/05/14 07:25:07;;;;;;;;;;;;;;;19.93;55.79;100030.45;1797166;78;20576;-53
2021/05/14 07:27:33;;;;;;;;;;;;;;;19.92;55.79;100027.45;1802599;78;20197;-55
2021/05/14 07:30:00;;;;;;;;;;;;;;;19.92;55.77;100033.78;1794961;78;20455;-54
2021/05/14 07:32:26;;;;;;;;;;;;;;;19.93;55.76;100040.12;1795380;78;20212;-55
2021/05/14 07:34:53;;;;;;;;;;;;;;;19.92;55.76;100040.68;1806855;78;21138;-56
2021/05/14 07:37:19;;;;;;;;;;;;;;;19.91;55.75;100032.16;1801008;78;20222;-54
2021/05/14 07:39:45;;;;;;;;;;;;;;;19.92;55.79;100051.72;1802006;78;20227;-56
2021/05/14 07:42:11;;;;;;;;;;;;;;;19.91;55.79;100039.05;1795473;78;20699;-55
2021/05/14 07:44:37;;;;;;;;;;;;;;;19.92;55.76;100043.44;1798708;78;20186;-55
2021/05/14 07:47:04;;;;;;;;;;;;;;;19.91;55.77;100042.38;1794454;78;23325;-56
2021/05/14 07:49:30;;;;;;;;;;;;;;;19.92;55.76;100045.39;1798272;78;20147;-54
2021/05/14 07:51:56;;;;;;;;;;;;;;;19.92;55.76;100049.53;1806532;78;20799;-55
2021/05/14 07:54:22;;;;;;;;;;;;;;;19.91;55.79;100052.86;1803795;78;20136;-55
2021/05/14 07:56:48;;;;;;;;;;;;;;;19.92;55.76;100053.67;1798789;78;20349;-54
2021/05/14 07:59:14;;;;;;;;;;;;;;;19.92;55.75;100050.91;1793009;78;21146;-55
2021/05/14 08:01:40;;;;;;;;;;;;;;;19.91;55.75;100054.23;1795017;78;20488;-54
2021/05/14 08:04:06;;;;;;;;;;;;;;;19.92;55.76;100059.20;1799491;78;20735;-55
2021/05/14 08:06:32;;;;;;;;;;;;;;;19.92;55.79;100053.67;1805547;78;20234;-55
2021/05/14 08:09:00;;;;;;;;;;;;;;;19.91;55.76;100058.38;1807869;78;20283;-55
2021/05/14 08:11:26;;;;;;;;;;;;;;;19.91;55.76;100051.48;1798973;78;21008;-55
2021/05/14 08:13:52;;;;;;;;;;;;;;;19.92;55.76;100056.44;1797680;78;20759;-56
2021/05/14 08:16:18;;;;;;;;;;;;;;;19.92;55.77;100063.34;1800485;78;20235;-55
2021/05/14 08:18:44;;;;;;;;;;;;;;;19.92;55.75;100060.01;1795533;78;21769;-54
2021/05/14 08:21:09;;;;;;;;;;;;;;;19.92;55.75;100060.01;1795356;78;20288;-55
2021/05/14 08:23:35;;;;;;;;;;;;;;;19.92;55.75;100068.86;1795126;78;21148;-54
2021/05/14 08:26:01;;;;;;;;;;;;;;;19.92;55.74;100072.43;1814862;78;20471;-54
2021/05/14 08:28:27;;;;;;;;;;;;;;;19.93;55.74;100070.48;1801728;78;20154;-54
2021/05/14 08:30:53;;;;;;;;;;;;;;;19.91;55.73;100066.66;1791039;78;20470;-55
2021/05/14 08:33:19;;;;;;;;;;;;;;;19.92;55.74;100078.52;1801572;78;20199;-54
2021/05/14 08:35:45;;;;;;;;;;;;;;;19.93;55.73;100069.11;1796728;78;21019;-55
2021/05/14 08:38:11;;;;;;;;;;;;;;;19.93;55.73;100067.72;1794414;78;20540;-53
2021/05/14 08:40:38;;;;;;;;;;;;;;;19.92;55.72;100069.67;1801766;78;20497;-55
2021/05/14 08:43:05;;;;;;;;;;;;;;;19.92;55.72;100071.05;1797380;78;20228;-54
2021/05/14 08:45:32;;;;;;;;;;;;;;;19.93;55.73;100075.44;1802016;78;20299;-56
2021/05/14 08:47:58;;;;;;;;;;;;;;;19.92;55.72;100075.19;1804798;78;21114;-55
2021/05/14 08:50:28;;;;;;;;;;;;;;;19.93;55.68;100076.82;1786435;78;20209;-55
2021/05/14 08:52:54;;;;;;;;;;;;;;;19.94;55.70;100073.49;1791105;78;20296;-54
2021/05/14 08:55:23;;;;;;;;;;;;;;;19.95;55.69;100080.05;1795527;78;20217;-55
2021/05/14 08:57:49;;;;;;;;;;;;;;;19.95;55.67;100072.33;1799020;78;20204;-54
2021/05/14 09:00:16;;;;;;;;;;;;;;;19.95;55.65;100080.05;1802297;78;21080;-54
2021/05/14 09:02:42;;;;;;;;;;;;;;;19.96;55.65;100079.48;1809865;78;20224;-54
2021/05/14 09:05:25;;;;;;;;;;;;;;;19.97;55.64;100076.40;1798297;78;20216;-55
2021/05/14 09:07:52;;;;;;;;;;;;;;;19.97;55.61;100083.30;1796431;78;20166;-55
2021/05/14 09:10:18;;;;;;;;;;;;;;;19.98;55.62;100081.35;1795909;78;20173;-55
2021/05/14 09:12:45;;;;;;;;;;;;;;;19.98;55.60;100080.78;1795005;78;20958;-55
2021/05/14 09:15:30;;;;;;;;;;;;;;;19.99;55.60;100079.62;1807133;78;20568;-55
2021/05/14 09:18:14;;;;;;;;;;;;;;;20.01;55.58;100073.78;1792489;78;20170;-55
2021/05/14 09:20:58;;;;;;;;;;;;;;;20.00;55.56;100082.62;1803673;78;20170;-56
2021/05/14 09:23:30;;;;;;;;;;;;;;;20.01;55.54;100075.97;1798492;78;20229;-54
2021/05/14 09:26:00;;;;;;;;;;;;;;;20.03;55.52;100084.72;1792515;78;21187;-54
2021/05/14 09:28:28;;;;;;;;;;;;;;;20.04;55.50;100082.77;1792250;78;20470;-55
2021/05/14 09:31:15;;;;;;;;;;;;;;;20.04;55.50;100076.69;1791275;78;20216;-54
2021/05/14 09:33:55;;;;;;;;;;;;;;;20.05;55.51;100077.50;1796010;78;20198;-53
2021/05/14 09:36:24;;;;;;;;;;;;;;;20.06;55.48;100074.41;1782348;79;20301;-53
2021/05/14 09:38:54;;;;;;;;;;;;;;;20.07;55.48;100073.84;1789297;78;21068;-54
2021/05/14 09:41:45;;;;;;;;;;;;;;;20.07;55.48;100077.39;1804999;78;20262;-51
2021/05/14 09:44:19;;;;;;;;;;;;;;;20.09;55.48;100086.73;1799912;77;20528;-54
2021/05/14 09:46:55;;;;;;;;;;;;;;;20.12;55.44;100078.34;1811130;78;20494;-53
2021/05/14 09:49:23;;;;;;;;;;;;;;;20.13;55.43;100073.07;1796879;78;20188;-55
2021/05/14 09:52:06;;;;;;;;;;;;;;;20.13;55.44;100071.69;1792460;78;21076;-55
2021/05/14 09:54:42;;;;;;;;;;;;;;;20.15;55.43;100066.66;1789649;77;20511;-54
2021/05/14 09:59:58;;;;;;;;;;;;;;;20.18;55.41;100074.27;1808045;77;20145;-56
2021/05/14 10:02:33;;;;;;;;;;;;;;;20.21;55.40;100070.84;1808334;77;20186;-55
2021/05/14 10:05:02;;;;;;;;;;;;;;;20.24;55.38;100064.67;1776170;79;23246;-56
2021/05/14 10:07:29;;;;;;;;;;;;;;;20.28;55.35;100078.87;1795314;77;20138;-55
2021/05/14 10:09:57;;;;;;;;;;;;;;;20.31;55.32;100074.65;1797132;78;21000;-55
2021/05/14 10:12:22;;;;;;;;;;;;;;;20.35;55.28;100071.45;1778335;78;20205;-54
2021/05/14 10:14:50;;;;;;;;;;;;;;;20.36;55.26;100066.98;1798052;78;20201;-55
2021/05/14 10:17:17;;;;;;;;;;;;;;;20.39;55.22;100067.69;1819361;77;21950;-56
2021/05/14 10:19:43;;;;;;;;;;;;;;;20.42;55.21;100065.64;1816997;77;20220;-56
2021/05/14 10:22:09;;;;;;;;;;;;;;;20.45;55.18;100064.96;1817547;77;20139;-55
2021/05/14 10:24:53;;;;;;;;;;;;;;;20.49;55.15;100072.84;1808951;78;20165;-54
2021/05/14 10:27:24;;;;;;;;;;;;;;;20.52;55.12;100060.30;1817035;77;20224;-54
2021/05/14 10:29:54;;;;;;;;;;;;;;;20.56;55.10;100053.53;1816664;77;21002;-54
2021/05/14 10:32:47;;;;;;;;;;;;;;;20.60;55.06;100064.15;1819619;77;20642;-54
2021/05/14 10:35:15;;;;;;;;;;;;;;;20.62;55.00;100046.11;1820473;77;20165;-56
2021/05/14 10:37:52;;;;;;;;;;;;;;;20.68;54.98;100060.52;1814156;77;20168;-54
2021/05/14 10:40:34;;;;;;;;;;;;;;;20.75;54.95;100056.66;1819108;77;20660;-54
2021/05/14 10:43:05;;;;;;;;;;;;;;;20.79;54.85;100064.52;1792471;78;21135;-54
2021/05/14 10:45:36;;;;;;;;;;;;;;;20.81;54.80;100061.64;1783109;79;20227;-54
2021/05/14 10:48:02;;;;;;;;;;;;;;;20.86;54.76;100053.72;1808195;77;20259;-55
2021/05/14 10:50:36;;;;;;;;;;;;;;;20.90;54.74;100046.38;1787122;78;20216;-55
2021/05/14 10:53:30;;;;;;;;;;;;;;;20.92;54.71;100057.31;1786617;78;20285;-52
2021/05/14 10:56:10;;;;;;;;;;;;;;;20.95;54.69;100053.90;1814927;77;21135;-55
2021/05/14 10:58:45;;;;;;;;;;;;;;;21.03;54.66;100058.30;1823161;77;20440;-54
2021/05/14 11:01:43;;;;;;;;;;;;;;;21.07;54.62;100061.44;1810131;78;20490;-53
2021/05/14 11:04:16;;;;;;;;;;;;;;;21.10;54.57;100053.02;1797110;78;20268;-54
2021/05/14 11:06:49;;;;;;;;;;;;;;;21.13;54.51;100059.31;1786829;78;20214;-55
2021/05/14 11:09:16;;;;;;;;;;;;;;;21.14;54.49;100047.08;1789946;79;21035;-55
2021/05/14 11:12:02;;;;;;;;;;;;;;;21.18;54.50;100052.16;1796427;78;20237;-54
2021/05/14 11:14:48;;;;;;;;;;;;;;;21.21;54.46;100052.89;1789457;78;20249;-53
2021/05/14 11:17:20;;;;;;;;;;;;;;;21.25;54.42;100064.33;1786738;78;20238;-55
2021/05/14 11:19:48;;;;;;;;;;;;;;;21.28;54.38;100048.42;1793643;78;20274;-53
2021/05/14 11:22:34;;;;;;;;;;;;;;;21.32;54.35;100038.28;1806982;78;21781;-54
2021/05/14 11:25:14;;;;;;;;;;;;;;;21.36;54.32;100050.86;1801411;78;21720;-53
2021/05/14 11:27:42;;;;;;;;;;;;;;;21.39;54.30;100043.25;1794353;78;20219;-54
2021/05/14 11:30:15;;;;;;;;;;;;;;;21.43;54.29;100042.23;1807748;78;21935;-55
2021/05/14 11:32:43;;;;;;;;;;;;;;;21.48;54.27;100042.59;1800491;78;20505;-54
2021/05/14 11:35:18;;;;;;;;;;;;;;;21.52;54.23;100031.64;1796581;78;21815;-55
2021/05/14 11:37:52;;;;;;;;;;;;;;;21.56;54.22;100038.92;1805235;78;20175;-55
2021/05/14 11:40:24;;;;;;;;;;;;;;;21.61;54.20;100033.74;1798092;78;21538;-53
2021/05/14 11:42:55;;;;;;;;;;;;;;;21.66;54.15;100039.88;1794315;78;20174;-55
2021/05/14 11:45:23;;;;;;;;;;;;;;;21.69;54.14;100036.98;1799611;78;20507;-54
2021/05/14 11:47:55;;;;;;;;;;;;;;;21.74;54.11;100034.00;1794008;78;21136;-54
2021/05/14 11:50:30;;;;;;;;;;;;;;;21.79;54.08;100033.78;1800940;78;20225;-54
2021/05/14 11:52:56;;;;;;;;;;;;;;;21.83;54.05;100017.52;1795828;78;20234;-54
2021/05/14 11:55:23;;;;;;;;;;;;;;;21.88;54.02;100045.00;1798141;78;20163;-54
2021/05/14 11:57:50;;;;;;;;;;;;;;;21.92;53.99;100030.45;1796613;78;20207;-54
2021/05/14 12:00:19;;;;;;;;;;;;;;;21.95;53.97;100028.41;1805175;78;21219;-54
2021/05/14 12:02:45;;;;;;;;;;;;;;;21.97;53.95;100033.03;1789781;78;20159;-53
2021/05/14 12:05:14;;;;;;;;;;;;;;;22.01;53.93;100019.53;1789595;78;20280;-53
2021/05/14 12:07:41;;;;;;;;;;;;;;;22.04;53.90;100035.45;1797834;78;20456;-55
2021/05/14 12:10:09;;;;;;;;;;;;;;;22.09;53.92;100031.65;1796031;78;20230;-54
2021/05/14 12:12:39;;;;;;;;;;;;;;;22.12;53.86;100023.45;1798848;78;21122;-54
2021/05/14 12:15:18;;;;;;;;;;;;;;;22.14;53.84;100025.88;1793195;78;20145;-53
2021/05/14 12:17:46;;;;;;;;;;;;;;;22.16;53.81;100030.48;1811971;78;20239;-53
2021/05/14 12:20:16;;;;;;;;;;;;;;;22.19;53.79;100031.20;1798117;78;20479;-53
2021/05/14 12:22:46;;;;;;;;;;;;;;;22.19;53.77;100024.27;1795479;78;20427;-53
2021/05/14 12:25:12;;;;;;;;;;;;;;;22.19;53.75;100018.73;1787612;78;21178;-55
2021/05/14 12:27:39;;;;;;;;;;;;;;;22.21;53.78;100017.79;1804030;78;20570;-54
2021/05/14 12:30:06;;;;;;;;;;;;;;;22.25;53.75;100025.64;1794749;78;20251;-54
2021/05/14 12:32:32;;;;;;;;;;;;;;;22.27;53.73;100017.80;1814648;78;20672;-55
2021/05/14 12:34:58;;;;;;;;;;;;;;;22.30;53.71;100025.41;1788835;78;20739;-55
2021/05/14 12:37:24;;;;;;;;;;;;;;;22.33;53.71;100015.00;1793448;78;21072;-55
2021/05/14 12:39:50;;;;;;;;;;;;;;;22.35;53.69;100023.80;1793186;78;20713;-55
2021/05/14 12:42:29;;;;;;;;;;;;;;;22.39;53.67;100028.87;1800378;78;20231;-54
2021/05/14 12:44:55;;;;;;;;;;;;;;;22.41;53.65;100022.38;1797681;78;20195;-54
2021/05/14 12:47:23;;;;;;;;;;;;;;;22.43;53.63;100010.38;1803068;78;20317;-55
2021/05/14 12:49:56;;;;;;;;;;;;;;;22.46;53.61;100019.95;1799252;78;21154;-55